createdAt,value
2022-08-22T00:00:09.492Z,78.84
2022-08-22T00:01:04.708Z,78.92
2022-08-22T00:02:00.058Z,79.04
2022-08-22T00:02:54.358Z,76.02
2022-08-22T00:02:57.786Z,78.47
2022-08-22T00:03:02.620Z,76.01
2022-08-22T00:03:04.819Z,76.01
2022-08-22T00:03:08.817Z,71.12
2022-08-22T00:03:10.647Z,78.20
2022-08-22T00:03:15.045Z,78.72
2022-08-22T00:03:52.866Z,79.11
2022-08-22T00:04:47.769Z,79.25
2022-08-22T00:05:42.843Z,79.49
2022-08-22T00:06:38.225Z,79.50
2022-08-22T00:07:33.920Z,79.34
2022-08-22T00:08:29.179Z,79.28
2022-08-22T00:09:24.295Z,79.22
2022-08-22T00:10:25.224Z,79.15
2022-08-22T00:11:15.919Z,79.17
2022-08-22T00:12:11.714Z,79.15
2022-08-22T00:13:06.915Z,79.46
2022-08-22T00:14:02.257Z,79.46
2022-08-22T00:14:57.314Z,79.49
2022-08-22T00:15:52.690Z,79.45
2022-08-22T00:16:47.799Z,79.37
2022-08-22T00:17:43.204Z,79.34
2022-08-22T00:18:39.006Z,79.18
2022-08-22T00:19:34.263Z,79.04
2022-08-22T00:20:29.472Z,79.08
2022-08-22T00:21:25.272Z,79.26
2022-08-22T00:22:20.363Z,79.25
2022-08-22T00:23:15.482Z,79.32
2022-08-22T00:24:10.722Z,79.36
2022-08-22T00:25:05.816Z,79.45
2022-08-22T00:26:00.919Z,79.03
2022-08-22T00:26:56.030Z,78.99
2022-08-22T00:27:51.119Z,79.51
2022-08-22T00:28:46.124Z,79.83
2022-08-22T00:29:41.240Z,80.14
2022-08-22T00:30:36.367Z,80.22
2022-08-22T00:31:31.559Z,80.06
2022-08-22T00:32:26.629Z,80.52
2022-08-22T00:33:21.743Z,80.47
2022-08-22T00:34:16.868Z,80.86
2022-08-22T00:35:11.845Z,80.74
2022-08-22T00:36:06.969Z,81.00
2022-08-22T00:37:02.041Z,80.78
2022-08-22T00:37:57.097Z,80.59
2022-08-22T00:38:52.372Z,80.20
2022-08-22T00:39:47.397Z,80.27
2022-08-22T00:40:42.365Z,80.21
2022-08-22T00:41:37.425Z,80.78
2022-08-22T00:42:32.492Z,80.79
2022-08-22T00:43:27.618Z,80.89
2022-08-22T00:44:22.594Z,80.90
2022-08-22T00:45:17.659Z,81.18
2022-08-22T00:46:12.766Z,81.46
2022-08-22T00:47:09.486Z,81.68
2022-08-22T00:48:04.595Z,81.78
2022-08-22T00:48:59.698Z,81.48
2022-08-22T00:49:54.670Z,81.06
2022-08-22T00:50:49.743Z,80.68
2022-08-22T00:51:44.814Z,80.89
2022-08-22T00:52:39.891Z,80.83
2022-08-22T00:53:34.990Z,80.51
2022-08-22T00:54:30.000Z,80.25
2022-08-22T00:55:25.070Z,80.26
2022-08-22T00:56:20.123Z,79.97
2022-08-22T00:57:15.126Z,79.93
2022-08-22T00:58:10.212Z,79.87
2022-08-22T00:59:18.021Z,79.87
2022-08-22T01:00:01.256Z,80.03
2022-08-22T01:00:55.390Z,80.07
2022-08-22T01:01:52.483Z,80.10
2022-08-22T01:02:52.287Z,79.92
2022-08-22T01:03:43.649Z,80.02
2022-08-22T01:04:37.691Z,79.74
2022-08-22T01:05:32.717Z,79.90
2022-08-22T01:06:27.792Z,80.44
2022-08-22T01:07:22.911Z,80.90
2022-08-22T01:08:17.916Z,80.80
2022-08-22T01:09:12.887Z,80.59
2022-08-22T01:10:07.977Z,80.51
2022-08-22T01:11:02.985Z,80.69
2022-08-22T01:11:58.096Z,80.33
2022-08-22T01:12:53.355Z,80.30
2022-08-22T01:13:48.453Z,80.27
2022-08-22T01:14:43.560Z,80.22
2022-08-22T01:15:39.369Z,80.45
2022-08-22T01:16:34.598Z,80.51
2022-08-22T01:17:30.508Z,80.25
2022-08-22T01:18:25.631Z,80.18
2022-08-22T01:19:21.047Z,80.27
2022-08-22T01:20:16.851Z,80.20
2022-08-22T01:21:12.087Z,80.35
2022-08-22T01:22:07.437Z,80.19
2022-08-22T01:23:03.506Z,80.35
2022-08-22T01:23:58.742Z,80.62
2022-08-22T01:24:54.562Z,80.36
2022-08-22T01:25:49.795Z,80.26
2022-08-22T01:26:45.112Z,80.37
2022-08-22T01:27:41.473Z,80.59
2022-08-22T01:28:36.705Z,80.64
2022-08-22T01:29:32.661Z,81.23
2022-08-22T01:30:27.736Z,81.05
2022-08-22T01:31:23.110Z,81.29
2022-08-22T01:32:18.785Z,81.41
2022-08-22T01:33:14.076Z,81.30
2022-08-22T01:34:12.765Z,81.36
2022-08-22T01:35:05.562Z,81.54
2022-08-22T01:36:00.860Z,81.89
2022-08-22T01:36:56.662Z,82.22
2022-08-22T01:37:51.878Z,82.34
2022-08-22T01:38:47.081Z,82.41
2022-08-22T01:39:42.865Z,82.45
2022-08-22T01:40:37.984Z,82.43
2022-08-22T01:41:34.965Z,82.20
2022-08-22T01:42:28.994Z,82.11
2022-08-22T01:43:51.219Z,81.93
2022-08-22T01:44:22.061Z,81.83
2022-08-22T01:45:16.128Z,81.42
2022-08-22T01:46:11.468Z,81.35
2022-08-22T01:47:07.554Z,81.24
2022-08-22T01:48:02.838Z,80.95
2022-08-22T01:48:58.680Z,81.05
2022-08-22T01:49:53.906Z,81.09
2022-08-22T01:50:49.155Z,81.24
2022-08-22T01:51:44.835Z,81.26
2022-08-22T01:52:40.091Z,81.10
2022-08-22T01:53:35.914Z,81.10
2022-08-22T01:54:31.113Z,81.26
2022-08-22T01:55:26.494Z,81.10
2022-08-22T01:56:22.186Z,81.21
2022-08-22T01:57:17.410Z,81.07
2022-08-22T01:58:12.538Z,81.19
2022-08-22T01:59:10.950Z,81.41
2022-08-22T02:00:03.559Z,81.61
2022-08-22T02:00:58.640Z,81.79
2022-08-22T02:01:54.034Z,81.97
2022-08-22T02:02:49.706Z,81.99
2022-08-22T02:03:45.013Z,82.17
2022-08-22T02:04:40.741Z,82.50
2022-08-22T02:05:36.035Z,82.79
2022-08-22T02:06:31.343Z,83.08
2022-08-22T02:07:32.101Z,83.51
2022-08-22T02:08:23.315Z,83.63
2022-08-22T02:09:17.543Z,83.53
2022-08-22T02:10:12.541Z,83.39
2022-08-22T02:11:07.601Z,83.37
2022-08-22T02:12:02.663Z,83.50
2022-08-22T02:12:57.717Z,83.61
2022-08-22T02:13:52.781Z,83.58
2022-08-22T02:14:47.848Z,83.70
2022-08-22T02:15:44.018Z,83.63
2022-08-22T02:16:38.207Z,83.79
2022-08-22T02:17:33.795Z,84.09
2022-08-22T02:18:28.859Z,84.12
2022-08-22T02:19:23.824Z,83.99
2022-08-22T02:20:20.452Z,83.93
2022-08-22T02:21:13.922Z,83.82
2022-08-22T02:22:09.142Z,83.92
2022-08-22T02:23:04.253Z,83.88
2022-08-22T02:23:59.395Z,83.86
2022-08-22T02:24:54.364Z,83.67
2022-08-22T02:25:49.472Z,83.62
2022-08-22T02:26:44.533Z,83.62
2022-08-22T02:27:39.666Z,83.61
2022-08-22T02:28:34.880Z,83.63
2022-08-22T02:29:30.283Z,83.42
2022-08-22T02:30:25.380Z,83.48
2022-08-22T02:31:20.492Z,83.44
2022-08-22T02:32:15.619Z,83.27
2022-08-22T02:33:11.969Z,83.11
2022-08-22T02:34:07.152Z,82.93
2022-08-22T02:35:02.311Z,82.64
2022-08-22T02:35:57.517Z,82.43
2022-08-22T02:36:52.621Z,82.16
2022-08-22T02:37:48.998Z,82.02
2022-08-22T02:38:44.083Z,81.82
2022-08-22T02:39:39.380Z,81.89
2022-08-22T02:40:34.488Z,81.83
2022-08-22T02:41:31.037Z,81.77
2022-08-22T02:42:24.922Z,81.80
2022-08-22T02:43:20.071Z,81.79
2022-08-22T02:44:15.267Z,81.68
2022-08-22T02:45:10.635Z,81.90
2022-08-22T02:46:05.742Z,81.73
2022-08-22T02:47:00.767Z,81.88
2022-08-22T02:47:55.857Z,81.96
2022-08-22T02:48:51.076Z,81.97
2022-08-22T02:49:46.435Z,81.78
2022-08-22T02:50:41.509Z,81.97
2022-08-22T02:51:36.742Z,81.92
2022-08-22T02:52:31.975Z,81.86
2022-08-22T02:53:27.218Z,82.10
2022-08-22T02:54:22.417Z,82.39
2022-08-22T02:55:17.545Z,82.64
2022-08-22T02:56:12.687Z,82.68
2022-08-22T02:57:14.303Z,82.90
2022-08-22T02:58:03.894Z,83.04
2022-08-22T02:59:00.024Z,83.21
2022-08-22T02:59:53.285Z,83.58
2022-08-22T03:00:48.605Z,84.09
2022-08-22T03:01:43.721Z,84.21
2022-08-22T03:02:38.952Z,84.09
2022-08-22T03:03:34.189Z,83.99
2022-08-22T03:04:29.297Z,83.82
2022-08-22T03:05:24.389Z,83.63
2022-08-22T03:06:19.389Z,83.50
2022-08-22T03:07:14.451Z,83.50
2022-08-22T03:08:09.560Z,83.32
2022-08-22T03:09:04.585Z,83.28
2022-08-22T03:09:59.579Z,83.16
2022-08-22T03:10:54.660Z,83.26
2022-08-22T03:11:49.746Z,83.26
2022-08-22T03:12:44.890Z,83.39
2022-08-22T03:13:40.121Z,83.30
2022-08-22T03:14:35.366Z,83.37
2022-08-22T03:15:30.366Z,83.44
2022-08-22T03:16:25.381Z,83.44
2022-08-22T03:17:20.594Z,83.10
2022-08-22T03:18:15.821Z,82.96
2022-08-22T03:19:18.337Z,82.94
2022-08-22T03:20:07.076Z,83.21
2022-08-22T03:21:01.084Z,83.17
2022-08-22T03:21:56.111Z,83.41
2022-08-22T03:22:51.185Z,83.26
2022-08-22T03:23:46.251Z,83.46
2022-08-22T03:24:41.365Z,83.48
2022-08-22T03:25:36.353Z,83.28
2022-08-22T03:26:31.531Z,83.17
2022-08-22T03:27:32.106Z,82.98
2022-08-22T03:28:22.486Z,82.98
2022-08-22T03:29:16.524Z,83.02
2022-08-22T03:30:11.741Z,82.53
2022-08-22T03:31:07.112Z,82.03
2022-08-22T03:32:02.279Z,81.65
2022-08-22T03:32:57.341Z,81.59
2022-08-22T03:33:52.485Z,81.91
2022-08-22T03:34:47.560Z,82.07
2022-08-22T03:35:42.689Z,82.53
2022-08-22T03:36:37.780Z,82.62
2022-08-22T03:37:32.900Z,82.28
2022-08-22T03:38:27.909Z,82.72
2022-08-22T03:39:22.969Z,82.94
2022-08-22T03:40:18.105Z,83.08
2022-08-22T03:41:13.084Z,83.09
2022-08-22T03:42:08.065Z,83.23
2022-08-22T03:43:03.147Z,83.37
2022-08-22T03:43:58.256Z,83.52
2022-08-22T03:44:53.366Z,83.70
2022-08-22T03:45:48.469Z,83.83
2022-08-22T03:46:43.587Z,83.84
2022-08-22T03:47:38.674Z,84.03
2022-08-22T03:48:33.801Z,83.90
2022-08-22T03:49:28.993Z,83.82
2022-08-22T03:50:24.226Z,83.95
2022-08-22T03:51:19.349Z,84.14
2022-08-22T03:52:14.456Z,84.16
2022-08-22T03:53:10.281Z,83.66
2022-08-22T03:54:05.825Z,83.48
2022-08-22T03:54:59.862Z,83.34
2022-08-22T03:55:54.993Z,83.39
2022-08-22T03:56:49.930Z,83.21
2022-08-22T03:57:45.012Z,82.75
2022-08-22T03:58:40.142Z,82.59
2022-08-22T03:59:35.354Z,83.01
2022-08-22T04:00:31.649Z,82.85
2022-08-22T04:01:25.611Z,82.75
2022-08-22T04:02:27.512Z,82.69
2022-08-22T04:03:16.989Z,82.95
2022-08-22T04:04:11.874Z,82.87
2022-08-22T04:05:07.288Z,82.90
2022-08-22T04:06:02.558Z,82.87
2022-08-22T04:06:57.701Z,82.99
2022-08-22T04:07:52.918Z,83.06
2022-08-22T04:08:48.028Z,82.92
2022-08-22T04:09:46.030Z,82.53
2022-08-22T04:10:41.193Z,82.55
2022-08-22T04:11:36.336Z,82.32
2022-08-22T04:12:31.517Z,82.37
2022-08-22T04:13:26.665Z,82.10
2022-08-22T04:14:21.668Z,81.86
2022-08-22T04:15:16.677Z,81.73
2022-08-22T04:16:11.836Z,81.68
2022-08-22T04:17:06.847Z,81.60
2022-08-22T04:18:01.900Z,81.58
2022-08-22T04:18:57.034Z,81.61
2022-08-22T04:19:52.124Z,81.49
2022-08-22T04:20:47.201Z,81.61
2022-08-22T04:21:42.255Z,81.73
2022-08-22T04:22:37.372Z,82.00
2022-08-22T04:23:32.455Z,82.21
2022-08-22T04:24:27.493Z,82.44
2022-08-22T04:25:22.563Z,82.56
2022-08-22T04:26:17.552Z,82.54
2022-08-22T04:27:12.578Z,82.63
2022-08-22T04:28:07.579Z,82.82
2022-08-22T04:29:02.573Z,82.77
2022-08-22T04:29:57.631Z,82.77
2022-08-22T04:30:52.668Z,83.28
2022-08-22T04:31:47.703Z,83.40
2022-08-22T04:32:46.455Z,83.37
2022-08-22T04:33:41.601Z,83.39
2022-08-22T04:34:36.649Z,83.07
2022-08-22T04:35:31.687Z,82.94
2022-08-22T04:36:26.682Z,83.26
2022-08-22T04:37:21.667Z,83.81
2022-08-22T04:38:16.682Z,84.31
2022-08-22T04:39:11.696Z,84.45
2022-08-22T04:40:06.733Z,84.39
2022-08-22T04:41:04.575Z,84.43
2022-08-22T04:42:06.962Z,84.37
2022-08-22T04:42:52.992Z,84.50
2022-08-22T04:43:47.788Z,84.25
2022-08-22T04:44:43.069Z,84.46
2022-08-22T04:45:38.615Z,84.65
2022-08-22T04:46:36.862Z,84.54
2022-08-22T04:47:29.671Z,84.17
2022-08-22T04:48:25.525Z,83.75
2022-08-22T04:49:20.856Z,83.94
2022-08-22T04:50:16.276Z,83.60
2022-08-22T04:51:12.011Z,83.48
2022-08-22T04:52:07.341Z,83.57
2022-08-22T04:53:02.651Z,83.51
2022-08-22T04:53:58.952Z,83.14
2022-08-22T04:54:54.283Z,82.97
2022-08-22T04:55:50.134Z,82.90
2022-08-22T04:56:45.421Z,82.92
2022-08-22T04:57:40.787Z,82.86
2022-08-22T04:58:36.573Z,82.84
2022-08-22T04:59:31.925Z,82.80
2022-08-22T05:00:27.691Z,82.72
2022-08-22T05:01:22.968Z,82.60
2022-08-22T05:02:18.281Z,82.54
2022-08-22T05:03:14.007Z,82.16
2022-08-22T05:04:09.358Z,81.72
2022-08-22T05:05:04.705Z,81.41
2022-08-22T05:06:02.020Z,81.42
2022-08-22T05:06:56.397Z,81.23
2022-08-22T05:07:52.290Z,80.91
2022-08-22T05:08:48.393Z,80.71
2022-08-22T05:09:44.428Z,80.74
2022-08-22T05:10:38.789Z,80.78
2022-08-22T05:11:34.673Z,80.99
2022-08-22T05:12:29.996Z,80.82
2022-08-22T05:13:25.417Z,80.62
2022-08-22T05:14:20.467Z,80.44
2022-08-22T05:15:15.533Z,80.51
2022-08-22T05:16:12.462Z,80.67
2022-08-22T05:17:07.515Z,80.72
2022-08-22T05:18:02.597Z,80.80
2022-08-22T05:18:57.679Z,80.79
2022-08-22T05:19:52.725Z,80.67
2022-08-22T05:20:47.772Z,80.92
2022-08-22T05:21:42.911Z,80.87
2022-08-22T05:22:38.001Z,80.73
2022-08-22T05:23:33.124Z,80.67
2022-08-22T05:24:28.298Z,80.98
2022-08-22T05:25:23.142Z,81.14
2022-08-22T05:26:18.391Z,81.00
2022-08-22T05:27:13.795Z,81.13
2022-08-22T05:28:09.211Z,81.03
2022-08-22T05:29:04.935Z,81.07
2022-08-22T05:30:00.323Z,81.30
2022-08-22T05:30:56.240Z,81.27
2022-08-22T05:31:51.547Z,81.34
2022-08-22T05:32:46.880Z,81.22
2022-08-22T05:33:42.689Z,81.34
2022-08-22T05:34:38.060Z,81.33
2022-08-22T05:35:33.559Z,81.13
2022-08-22T05:36:29.779Z,80.92
2022-08-22T05:37:25.176Z,80.78
2022-08-22T05:38:20.859Z,80.73
2022-08-22T05:39:16.224Z,80.57
2022-08-22T05:40:11.750Z,80.51
2022-08-22T05:41:07.022Z,80.61
2022-08-22T05:42:02.479Z,80.59
2022-08-22T05:42:57.886Z,80.53
2022-08-22T05:43:52.975Z,80.61
2022-08-22T05:44:48.074Z,80.64
2022-08-22T05:45:43.495Z,80.63
2022-08-22T05:46:38.307Z,80.66
2022-08-22T05:47:33.390Z,80.62
2022-08-22T05:48:28.487Z,80.49
2022-08-22T05:49:23.593Z,80.18
2022-08-22T05:50:18.699Z,80.31
2022-08-22T05:51:13.803Z,79.96
2022-08-22T05:52:08.919Z,79.76
2022-08-22T05:53:05.247Z,79.64
2022-08-22T05:54:00.617Z,79.35
2022-08-22T05:54:56.001Z,79.22
2022-08-22T05:55:51.453Z,79.18
2022-08-22T05:56:46.428Z,79.00
2022-08-22T05:57:41.429Z,78.75
2022-08-22T05:58:36.593Z,78.80
2022-08-22T05:59:31.535Z,78.77
2022-08-22T06:00:26.543Z,78.62
2022-08-22T06:01:21.695Z,78.59
2022-08-22T06:02:16.808Z,78.61
2022-08-22T06:03:11.915Z,78.50
2022-08-22T06:04:07.058Z,78.20
2022-08-22T06:05:02.214Z,78.12
2022-08-22T06:05:57.150Z,78.17
2022-08-22T06:06:52.238Z,78.01
2022-08-22T06:07:47.235Z,77.64
2022-08-22T06:08:42.307Z,77.38
2022-08-22T06:09:37.424Z,77.20
2022-08-22T06:10:32.498Z,76.79
2022-08-22T06:11:32.692Z,76.60
2022-08-22T06:12:23.612Z,76.50
2022-08-22T06:13:24.339Z,76.06
2022-08-22T06:14:15.013Z,75.45
2022-08-22T06:15:12.061Z,75.43
2022-08-22T06:16:04.748Z,75.29
2022-08-22T06:17:00.124Z,75.06
2022-08-22T06:17:55.523Z,74.66
2022-08-22T06:18:51.059Z,74.39
2022-08-22T06:19:46.306Z,74.18
2022-08-22T06:20:41.685Z,74.04
2022-08-22T06:21:38.486Z,73.75
2022-08-22T06:22:32.423Z,73.50
2022-08-22T06:23:27.782Z,73.21
2022-08-22T06:24:23.212Z,72.36
2022-08-22T06:25:18.620Z,72.02
2022-08-22T06:26:21.284Z,72.17
2022-08-22T06:27:10.162Z,72.29
2022-08-22T06:28:04.187Z,72.70
2022-08-22T06:28:59.325Z,73.31
2022-08-22T06:29:54.417Z,73.32
2022-08-22T06:30:49.501Z,72.81
2022-08-22T06:31:44.604Z,72.06
2022-08-22T06:32:59.587Z,71.17
2022-08-22T06:33:35.714Z,70.82
2022-08-22T06:34:29.706Z,70.79
2022-08-22T06:35:24.803Z,70.36
2022-08-22T06:36:22.098Z,70.61
2022-08-22T06:37:17.188Z,70.54
2022-08-22T06:38:12.319Z,70.54
2022-08-22T06:39:07.297Z,70.43
2022-08-22T06:40:02.569Z,70.68
2022-08-22T06:40:57.894Z,70.40
2022-08-22T06:41:53.298Z,70.29
2022-08-22T06:42:48.678Z,70.01
2022-08-22T06:43:44.111Z,69.87
2022-08-22T06:44:39.481Z,69.59
2022-08-22T06:45:34.752Z,69.51
2022-08-22T06:46:29.590Z,69.54
2022-08-22T06:47:24.658Z,69.08
2022-08-22T06:48:19.757Z,68.87
2022-08-22T06:49:14.757Z,68.90
2022-08-22T06:50:13.705Z,68.87
2022-08-22T06:51:04.898Z,68.58
2022-08-22T06:52:00.524Z,68.42
2022-08-22T06:52:55.612Z,67.88
2022-08-22T06:53:50.971Z,68.07
2022-08-22T06:54:45.955Z,68.04
2022-08-22T06:55:41.130Z,68.08
2022-08-22T06:56:36.232Z,67.50
2022-08-22T06:57:31.627Z,67.31
2022-08-22T06:58:27.001Z,67.46
2022-08-22T06:59:23.874Z,66.64
2022-08-22T07:00:18.271Z,65.92
2022-08-22T07:01:13.672Z,65.72
2022-08-22T07:02:09.124Z,65.58
2022-08-22T07:03:04.531Z,65.13
2022-08-22T07:04:00.025Z,64.91
2022-08-22T07:04:55.319Z,64.50
2022-08-22T07:05:50.701Z,63.54
2022-08-22T07:06:46.084Z,62.85
2022-08-22T07:07:41.408Z,62.30
2022-08-22T07:08:39.168Z,62.44
2022-08-22T07:09:31.638Z,62.70
2022-08-22T07:10:26.813Z,62.81
2022-08-22T07:11:21.758Z,62.28
2022-08-22T07:12:16.848Z,63.01
2022-08-22T07:13:11.938Z,63.32
2022-08-22T07:14:07.050Z,62.96
2022-08-22T07:15:04.863Z,63.26
2022-08-22T07:16:00.028Z,63.18
2022-08-22T07:16:55.105Z,62.14
2022-08-22T07:17:50.111Z,61.16
2022-08-22T07:18:45.130Z,61.22
2022-08-22T07:19:40.218Z,61.06
2022-08-22T07:20:35.284Z,61.29
2022-08-22T07:21:30.378Z,61.17
2022-08-22T07:22:25.425Z,61.77
2022-08-22T07:23:20.497Z,61.95
2022-08-22T07:24:15.593Z,62.13
2022-08-22T07:25:10.707Z,61.97
2022-08-22T07:26:05.674Z,61.80
2022-08-22T07:27:00.687Z,61.39
2022-08-22T07:27:55.819Z,62.01
2022-08-22T07:28:58.563Z,61.60
2022-08-22T07:29:47.327Z,61.72
2022-08-22T07:30:44.749Z,61.54
2022-08-22T07:31:40.157Z,61.93
2022-08-22T07:32:35.602Z,62.09
2022-08-22T07:33:31.247Z,61.77
2022-08-22T07:34:26.657Z,61.53
2022-08-22T07:35:21.702Z,61.33
2022-08-22T07:36:16.713Z,61.23
2022-08-22T07:37:11.713Z,61.11
2022-08-22T07:38:06.820Z,60.80
2022-08-22T07:39:01.949Z,60.31
2022-08-22T07:39:56.974Z,59.77
2022-08-22T07:40:52.112Z,60.40
2022-08-22T07:41:47.282Z,61.88
2022-08-22T07:42:42.322Z,61.83
2022-08-22T07:43:37.325Z,62.34
2022-08-22T07:44:32.357Z,61.83
2022-08-22T07:45:27.402Z,61.79
2022-08-22T07:46:22.570Z,62.47
2022-08-22T07:47:21.861Z,62.62
2022-08-22T07:48:22.632Z,62.66
2022-08-22T07:49:10.344Z,62.70
2022-08-22T07:50:04.706Z,62.82
2022-08-22T07:51:00.229Z,62.67
2022-08-22T07:51:55.778Z,62.17
2022-08-22T07:52:51.237Z,62.60
2022-08-22T07:53:46.700Z,62.69
2022-08-22T07:54:42.247Z,62.05
2022-08-22T07:55:41.117Z,61.22
2022-08-22T07:56:34.207Z,61.30
2022-08-22T07:57:29.961Z,60.19
2022-08-22T07:58:23.692Z,59.94
2022-08-22T07:59:18.798Z,58.70
2022-08-22T08:00:13.829Z,59.14
2022-08-22T08:01:09.162Z,59.81
2022-08-22T08:02:04.165Z,59.75
2022-08-22T08:02:59.248Z,60.72
2022-08-22T08:03:54.305Z,60.45
2022-08-22T08:04:49.317Z,60.25
2022-08-22T08:05:44.441Z,59.52
2022-08-22T08:06:39.446Z,58.64
2022-08-22T08:07:35.910Z,57.88
2022-08-22T08:08:30.896Z,57.75
2022-08-22T08:09:25.958Z,56.77
2022-08-22T08:10:20.974Z,55.85
2022-08-22T08:11:16.491Z,55.57
2022-08-22T08:12:12.154Z,54.99
2022-08-22T08:13:07.679Z,54.44
2022-08-22T08:14:03.191Z,54.47
2022-08-22T08:14:58.630Z,55.09
2022-08-22T08:15:54.152Z,55.27
2022-08-22T08:16:49.559Z,55.51
2022-08-22T08:17:45.237Z,54.99
2022-08-22T08:18:40.771Z,54.13
2022-08-22T08:19:36.332Z,54.95
2022-08-22T08:20:31.880Z,55.85
2022-08-22T08:21:27.275Z,57.16
2022-08-22T08:22:22.792Z,56.89
2022-08-22T08:23:18.341Z,57.22
2022-08-22T08:24:14.567Z,57.39
2022-08-22T08:25:08.570Z,58.16
2022-08-22T08:26:03.563Z,57.25
2022-08-22T08:26:58.567Z,56.47
2022-08-22T08:27:53.638Z,56.91
2022-08-22T08:28:48.733Z,57.33
2022-08-22T08:29:43.715Z,57.60
2022-08-22T08:30:40.589Z,57.56
2022-08-22T08:31:35.723Z,57.63
2022-08-22T08:32:30.738Z,58.03
2022-08-22T08:33:26.716Z,58.88
2022-08-22T08:34:22.050Z,59.98
2022-08-22T08:35:17.590Z,60.00
2022-08-22T08:36:13.003Z,59.26
2022-08-22T08:37:08.527Z,59.37
2022-08-22T08:38:03.983Z,58.61
2022-08-22T08:38:59.520Z,59.05
2022-08-22T08:39:54.982Z,59.56
2022-08-22T08:40:50.284Z,59.46
2022-08-22T08:41:45.859Z,59.71
2022-08-22T08:42:41.397Z,59.67
2022-08-22T08:43:36.806Z,59.08
2022-08-22T08:44:32.338Z,59.01
2022-08-22T08:45:29.070Z,59.33
2022-08-22T08:46:23.137Z,58.25
2022-08-22T08:47:18.561Z,57.68
2022-08-22T08:48:14.237Z,58.12
2022-08-22T08:49:09.684Z,57.69
2022-08-22T08:50:05.213Z,57.78
2022-08-22T08:51:01.989Z,56.97
2022-08-22T08:51:56.153Z,56.33
2022-08-22T08:52:52.948Z,55.91
2022-08-22T08:53:47.227Z,55.42
2022-08-22T08:54:42.662Z,56.05
2022-08-22T08:55:38.064Z,56.10
2022-08-22T08:56:33.185Z,55.11
2022-08-22T08:57:28.184Z,54.89
2022-08-22T08:58:23.273Z,55.62
2022-08-22T08:59:18.392Z,55.33
2022-08-22T09:00:13.582Z,56.55
2022-08-22T09:01:08.572Z,57.01
2022-08-22T09:02:03.574Z,57.09
2022-08-22T09:02:58.672Z,57.09
2022-08-22T09:03:53.802Z,57.09
2022-08-22T09:04:48.952Z,56.69
2022-08-22T09:05:43.995Z,56.40
2022-08-22T09:06:38.999Z,56.19
2022-08-22T09:07:34.048Z,55.12
2022-08-22T09:08:29.037Z,55.05
2022-08-22T09:09:24.836Z,55.10
2022-08-22T09:10:19.833Z,55.21
2022-08-22T09:11:14.830Z,55.21
2022-08-22T09:12:09.841Z,54.30
2022-08-22T09:14:01.245Z,54.03
2022-08-22T09:14:55.707Z,54.71
2022-08-22T09:15:54.969Z,54.29
2022-08-22T09:16:51.277Z,54.13
2022-08-22T09:17:43.121Z,54.11
2022-08-22T09:18:38.557Z,53.01
2022-08-22T09:19:34.073Z,54.05
2022-08-22T09:20:29.729Z,55.07
2022-08-22T09:21:31.251Z,56.07
2022-08-22T09:22:21.687Z,56.96
2022-08-22T09:23:16.242Z,56.22
2022-08-22T09:24:11.688Z,56.55
2022-08-22T09:25:07.229Z,56.31
2022-08-22T09:26:05.020Z,55.76
2022-08-22T09:26:59.344Z,55.28
2022-08-22T09:27:54.986Z,55.07
2022-08-22T09:28:50.434Z,55.24
2022-08-22T09:29:54.580Z,55.46
2022-08-22T09:30:42.463Z,55.45
2022-08-22T09:31:48.339Z,56.25
2022-08-22T09:32:35.563Z,56.37
2022-08-22T09:33:30.069Z,55.47
2022-08-22T09:34:25.636Z,56.19
2022-08-22T09:35:22.460Z,56.51
2022-08-22T09:36:16.567Z,56.36
2022-08-22T09:37:14.128Z,56.01
2022-08-22T09:38:07.678Z,56.18
2022-08-22T09:39:04.316Z,55.09
2022-08-22T09:39:59.927Z,54.74
2022-08-22T09:40:55.477Z,53.33
2022-08-22T09:41:51.592Z,53.76
2022-08-22T09:42:46.440Z,54.16
2022-08-22T09:43:45.106Z,53.90
2022-08-22T09:44:39.600Z,53.10
2022-08-22T09:45:32.744Z,52.20
2022-08-22T09:46:29.559Z,52.70
2022-08-22T09:47:24.466Z,53.20
2022-08-22T09:48:17.989Z,52.35
2022-08-22T09:49:13.037Z,52.43
2022-08-22T09:50:08.175Z,52.87
2022-08-22T09:51:28.535Z,52.74
2022-08-22T09:52:03.652Z,52.80
2022-08-22T09:52:57.027Z,52.74
2022-08-22T09:53:53.037Z,52.06
2022-08-22T09:54:46.906Z,51.00
2022-08-22T09:55:42.603Z,51.04
2022-08-22T09:56:38.122Z,51.06
2022-08-22T09:57:33.613Z,50.64
2022-08-22T09:58:29.211Z,50.25
2022-08-22T09:59:24.254Z,50.18
2022-08-22T10:00:22.124Z,50.07
2022-08-22T10:01:14.501Z,50.65
2022-08-22T10:02:15.310Z,50.64
2022-08-22T10:03:05.572Z,51.28
2022-08-22T10:03:59.690Z,51.19
2022-08-22T10:04:54.743Z,51.03
2022-08-22T10:05:49.710Z,51.31
2022-08-22T10:06:44.817Z,50.35
2022-08-22T10:07:39.966Z,49.22
2022-08-22T10:08:37.334Z,49.52
2022-08-22T10:09:32.635Z,50.87
2022-08-22T10:10:28.151Z,51.10
2022-08-22T10:11:23.995Z,51.01
2022-08-22T10:12:19.355Z,50.93
2022-08-22T10:13:15.883Z,50.97
2022-08-22T10:14:10.267Z,50.01
2022-08-22T10:15:06.835Z,48.00
2022-08-22T10:16:01.358Z,47.98
2022-08-22T10:16:56.888Z,48.26
2022-08-22T10:17:52.285Z,48.24
2022-08-22T10:18:53.252Z,48.10
2022-08-22T10:19:44.172Z,48.00
2022-08-22T10:20:38.612Z,48.85
2022-08-22T10:21:35.267Z,49.31
2022-08-22T10:22:30.312Z,49.87
2022-08-22T10:23:25.028Z,49.63
2022-08-22T10:24:25.245Z,50.01
2022-08-22T10:25:18.513Z,51.16
2022-08-22T10:26:12.809Z,51.64
2022-08-22T10:27:09.197Z,51.56
2022-08-22T10:28:03.650Z,51.42
2022-08-22T10:28:59.413Z,49.92
2022-08-22T10:29:54.982Z,49.58
2022-08-22T10:30:50.231Z,49.34
2022-08-22T10:31:59.571Z,48.99
2022-08-22T10:32:42.947Z,47.99
2022-08-22T10:33:36.612Z,47.53
2022-08-22T10:34:32.041Z,47.29
2022-08-22T10:35:27.817Z,47.55
2022-08-22T10:36:23.722Z,47.92
2022-08-22T10:37:19.048Z,48.44
2022-08-22T10:38:18.042Z,49.28
2022-08-22T10:39:13.189Z,48.48
2022-08-22T10:40:08.743Z,47.69
2022-08-22T10:41:05.533Z,47.17
2022-08-22T10:42:00.682Z,46.76
2022-08-22T10:42:55.177Z,46.78
2022-08-22T10:43:57.487Z,46.50
2022-08-22T10:44:47.146Z,46.74
2022-08-22T10:45:41.604Z,46.49
2022-08-22T10:46:37.277Z,45.35
2022-08-22T10:47:32.657Z,45.10
2022-08-22T10:48:28.153Z,45.12
2022-08-22T10:49:29.324Z,45.67
2022-08-22T10:50:20.322Z,46.48
2022-08-22T10:51:14.595Z,46.36
2022-08-22T10:52:17.265Z,46.34
2022-08-22T10:53:06.665Z,45.93
2022-08-22T10:54:01.134Z,45.30
2022-08-22T10:54:56.788Z,44.88
2022-08-22T10:55:52.293Z,45.10
2022-08-22T10:56:47.774Z,44.96
2022-08-22T10:57:43.286Z,45.29
2022-08-22T10:58:38.796Z,44.02
2022-08-22T10:59:34.131Z,43.61
2022-08-22T11:00:32.931Z,44.41
2022-08-22T11:01:40.998Z,45.67
2022-08-22T11:02:24.815Z,45.90
2022-08-22T11:03:23.374Z,45.24
2022-08-22T11:04:15.794Z,44.70
2022-08-22T11:05:10.262Z,44.52
2022-08-22T11:06:05.781Z,44.12
2022-08-22T11:07:01.362Z,44.96
2022-08-22T11:07:56.883Z,46.23
2022-08-22T11:08:52.364Z,46.34
2022-08-22T11:09:47.462Z,47.21
2022-08-22T11:10:42.474Z,48.29
2022-08-22T11:11:37.574Z,48.75
2022-08-22T11:12:34.544Z,48.82
2022-08-22T11:13:27.766Z,49.91
2022-08-22T11:14:22.772Z,50.19
2022-08-22T11:15:34.528Z,49.94
2022-08-22T11:16:14.095Z,49.37
2022-08-22T11:17:20.479Z,50.00
2022-08-22T11:18:04.281Z,49.34
2022-08-22T11:19:02.937Z,47.17
2022-08-22T11:19:54.165Z,44.86
2022-08-22T11:20:48.292Z,44.31
2022-08-22T11:21:43.401Z,43.55
2022-08-22T11:22:38.520Z,43.80
2022-08-22T11:23:34.763Z,43.39
2022-08-22T11:24:34.800Z,42.57
2022-08-22T11:25:36.277Z,43.52
2022-08-22T11:26:29.191Z,43.69
2022-08-22T11:27:17.605Z,43.51
2022-08-22T11:28:12.062Z,44.33
2022-08-22T11:29:14.090Z,44.55
2022-08-22T11:30:03.991Z,44.74
2022-08-22T11:30:58.561Z,45.18
2022-08-22T11:31:53.939Z,45.75
2022-08-22T11:32:49.478Z,45.72
2022-08-22T11:33:47.409Z,45.10
2022-08-22T11:34:40.499Z,46.19
2022-08-22T11:35:35.906Z,45.56
2022-08-22T11:36:32.411Z,46.43
2022-08-22T11:37:42.550Z,45.56
2022-08-22T11:38:26.991Z,45.10
2022-08-22T11:39:19.907Z,43.67
2022-08-22T11:40:14.314Z,42.74
2022-08-22T11:41:09.982Z,41.60
2022-08-22T11:42:05.376Z,40.82
2022-08-22T11:43:02.994Z,40.78
2022-08-22T11:43:57.294Z,40.46
2022-08-22T11:44:52.755Z,41.05
2022-08-22T11:45:48.180Z,40.50
2022-08-22T11:46:43.669Z,40.91
2022-08-22T11:47:39.067Z,42.49